Time;durP1;ratioP1;P1;durP2;ratioP2;P2;SDS_P1;SDS_P2;PMS_P1;PMS_P2;Temp;Humidity;BMP_temperature;BMP_pressure;BME280_temperature;BME280_humidity;BME280_pressure;Samples;Min_cycle;Max_cycle;Signal;HPM_P1;HPM_P2
2021/05/16 12:58:37;;;;;;;5.90;1.60;;;;;;;;;;5078338;27;20562;-59
2021/05/16 13:01:05;;;;;;;5.03;2.30;;;;;;;;;;5089683;28;20272;-58
2021/05/16 13:03:32;;;;;;;3.37;1.63;;;;;;;;;;5058787;28;20224;-60
2021/05/16 13:06:00;;;;;;;5.17;1.53;;;;;;;;;;5053375;28;20252;-60
2021/05/16 13:08:35;;;;;;;4.30;1.17;;;;;;;;;;5040975;28;20186;-66
2021/05/16 13:11:03;;;;;;;2.43;0.70;;;;;;;;;;5040860;28;20194;-59
2021/05/16 13:13:37;;;;;;;2.10;0.90;;;;;;;;;;5072410;28;20367;-62
2021/05/16 13:16:16;;;;;;;0.93;0.83;;;;;;;;;;5041558;28;20324;-64
2021/05/16 13:18:43;;;;;;;2.93;0.90;;;;;;;;;;5036665;28;20197;-61
2021/05/16 13:21:15;;;;;;;2.37;0.93;;;;;;;;;;5041089;28;20688;-63
2021/05/16 13:23:41;;;;;;;2.33;0.97;;;;;;;;;;5030582;28;20190;-59
2021/05/16 13:26:06;;;;;;;0.87;0.67;;;;;;;;;;5041234;28;20202;-59
2021/05/16 13:28:31;;;;;;;1.17;0.60;;;;;;;;;;5039000;28;20209;-62
2021/05/16 13:31:01;;;;;;;1.17;0.67;;;;;;;;;;5041912;28;20462;-59
2021/05/16 13:33:30;;;;;;;3.47;1.20;;;;;;;;;;5039080;28;20248;-60
2021/05/16 13:35:56;;;;;;;3.77;0.80;;;;;;;;;;5030976;28;20213;-61
2021/05/16 13:38:21;;;;;;;3.80;1.20;;;;;;;;;;5034796;28;20578;-59
2021/05/16 13:40:47;;;;;;;3.50;1.37;;;;;;;;;;5041395;28;20244;-58
2021/05/16 13:43:14;;;;;;;3.30;1.23;;;;;;;;;;5041000;28;20214;-61
2021/05/16 13:45:40;;;;;;;2.80;1.00;;;;;;;;;;5039089;28;20240;-59
2021/05/16 13:48:05;;;;;;;4.80;1.23;;;;;;;;;;5038302;28;20639;-60
2021/05/16 13:50:33;;;;;;;2.60;1.37;;;;;;;;;;5035718;28;20352;-58
2021/05/16 13:53:01;;;;;;;2.90;1.13;;;;;;;;;;5038519;28;20688;-58
2021/05/16 13:55:29;;;;;;;3.33;1.13;;;;;;;;;;5036856;28;20252;-62
2021/05/16 13:57:54;;;;;;;2.83;1.37;;;;;;;;;;5040141;28;20217;-62
2021/05/16 14:00:19;;;;;;;2.83;1.43;;;;;;;;;;5042922;28;20603;-64
2021/05/16 14:02:49;;;;;;;3.13;1.37;;;;;;;;;;5042444;28;20193;-61
2021/05/16 14:05:14;;;;;;;3.30;1.00;;;;;;;;;;5042265;28;20186;-61
2021/05/16 14:07:40;;;;;;;2.57;1.07;;;;;;;;;;5042298;28;20377;-63
2021/05/16 14:10:06;;;;;;;5.10;1.30;;;;;;;;;;5028344;28;20194;-63
2021/05/16 14:12:31;;;;;;;2.30;0.93;;;;;;;;;;5019826;28;20364;-64
2021/05/16 14:14:57;;;;;;;2.97;1.10;;;;;;;;;;5025509;28;20369;-61
2021/05/16 14:17:25;;;;;;;2.37;1.13;;;;;;;;;;5027490;28;20210;-60
2021/05/16 14:19:52;;;;;;;3.83;1.13;;;;;;;;;;5023413;28;20194;-62
2021/05/16 14:22:19;;;;;;;3.27;1.57;;;;;;;;;;5022990;28;20333;-62
2021/05/16 14:24:50;;;;;;;3.03;1.20;;;;;;;;;;5023141;28;20187;-64
2021/05/16 14:27:20;;;;;;;3.30;0.97;;;;;;;;;;5024524;28;20220;-68
2021/05/16 14:29:45;;;;;;;2.63;1.27;;;;;;;;;;5026916;28;20266;-63
2021/05/16 14:32:10;;;;;;;2.77;1.20;;;;;;;;;;5024781;28;20237;-64
2021/05/16 14:34:36;;;;;;;2.17;1.00;;;;;;;;;;5019267;28;20191;-66
2021/05/16 14:37:03;;;;;;;2.83;1.00;;;;;;;;;;5018080;28;20214;-61
2021/05/16 14:39:31;;;;;;;1.70;0.90;;;;;;;;;;5022375;28;20206;-65
2021/05/16 14:41:56;;;;;;;1.97;0.63;;;;;;;;;;5014053;28;20188;-67
2021/05/16 14:44:24;;;;;;;2.17;0.90;;;;;;;;;;5010361;28;20753;-65
2021/05/16 14:46:49;;;;;;;2.30;0.90;;;;;;;;;;5047948;28;20294;-65
2021/05/16 14:49:14;;;;;;;1.60;0.90;;;;;;;;;;5014298;28;20718;-65
2021/05/16 14:51:43;;;;;;;2.07;1.17;;;;;;;;;;5012706;28;20405;-64
2021/05/16 14:54:09;;;;;;;1.60;0.90;;;;;;;;;;5016573;28;20249;-63
2021/05/16 14:56:37;;;;;;;1.47;0.90;;;;;;;;;;5015054;28;20472;-63
2021/05/16 14:59:07;;;;;;;2.27;1.10;;;;;;;;;;5014189;28;20198;-63
2021/05/16 15:01:32;;;;;;;2.30;1.10;;;;;;;;;;5020149;28;20194;-63
2021/05/16 15:04:01;;;;;;;3.23;1.27;;;;;;;;;;5016144;28;20199;-64
2021/05/16 15:06:30;;;;;;;3.90;1.10;;;;;;;;;;5016425;28;20548;-64
2021/05/16 15:08:57;;;;;;;2.53;1.00;;;;;;;;;;5022708;28;20207;-67
2021/05/16 15:11:26;;;;;;;2.97;1.10;;;;;;;;;;5017142;28;20839;-59
2021/05/16 15:13:51;;;;;;;1.27;0.93;;;;;;;;;;5019734;28;20218;-64
2021/05/16 15:16:21;;;;;;;2.40;0.80;;;;;;;;;;5053877;28;20234;-62
2021/05/16 15:18:47;;;;;;;2.20;0.90;;;;;;;;;;5034854;28;20194;-62
2021/05/16 15:21:13;;;;;;;1.43;0.70;;;;;;;;;;5021594;28;20187;-65
2021/05/16 15:23:42;;;;;;;1.37;0.80;;;;;;;;;;5026183;28;20201;-66
2021/05/16 15:26:10;;;;;;;1.00;0.60;;;;;;;;;;5026253;28;20840;-61
2021/05/16 15:28:37;;;;;;;1.53;0.80;;;;;;;;;;5023149;28;20300;-66
2021/05/16 15:31:02;;;;;;;2.37;0.80;;;;;;;;;;5021202;28;20211;-63
2021/05/16 15:33:32;;;;;;;1.37;0.77;;;;;;;;;;5023462;28;20273;-63
2021/05/16 15:35:59;;;;;;;1.27;0.60;;;;;;;;;;5018189;28;20213;-59
2021/05/16 15:38:28;;;;;;;1.63;0.80;;;;;;;;;;5027657;28;20706;-61
2021/05/16 15:40:56;;;;;;;1.47;0.90;;;;;;;;;;5024185;28;20557;-63
2021/05/16 15:43:22;;;;;;;2.17;0.70;;;;;;;;;;5023248;28;20201;-60
2021/05/16 15:45:48;;;;;;;2.37;0.77;;;;;;;;;;5010039;28;20215;-60
2021/05/16 15:48:14;;;;;;;1.23;0.70;;;;;;;;;;5026939;28;20183;-63
2021/05/16 15:50:39;;;;;;;0.50;0.50;;;;;;;;;;5025280;28;20568;-61
2021/05/16 15:53:07;;;;;;;1.60;0.70;;;;;;;;;;5024609;28;20182;-63
2021/05/16 15:55:37;;;;;;;1.23;0.67;;;;;;;;;;5025872;28;20641;-62
2021/05/16 15:58:07;;;;;;;2.20;0.63;;;;;;;;;;5020912;28;20580;-60
2021/05/16 16:00:32;;;;;;;0.70;0.60;;;;;;;;;;5020196;28;20575;-61
2021/05/16 16:03:00;;;;;;;0.60;0.60;;;;;;;;;;5021454;28;20194;-64
2021/05/16 16:05:28;;;;;;;2.13;0.80;;;;;;;;;;5027189;28;20244;-62
2021/05/16 16:07:53;;;;;;;1.33;0.97;;;;;;;;;;5017530;28;20262;-62
2021/05/16 16:10:21;;;;;;;1.63;0.70;;;;;;;;;;5053273;28;20663;-62
2021/05/16 16:12:47;;;;;;;1.33;0.70;;;;;;;;;;5026184;28;20266;-62
2021/05/16 16:15:12;;;;;;;1.03;0.60;;;;;;;;;;5020300;28;20258;-61
2021/05/16 16:17:40;;;;;;;0.93;0.60;;;;;;;;;;5023222;28;20681;-63
2021/05/16 16:20:09;;;;;;;1.20;0.70;;;;;;;;;;5025736;28;20666;-63
2021/05/16 16:22:39;;;;;;;0.67;0.60;;;;;;;;;;5021232;28;20187;-61
2021/05/16 16:26:32;;;;;;;1.57;0.60;;;;;;;;;;5050154;28;21209;-62
2021/05/16 16:29:02;;;;;;;0.67;0.60;;;;;;;;;;5043812;28;20198;-63
2021/05/16 16:31:28;;;;;;;0.80;0.50;;;;;;;;;;5041104;28;20195;-65
2021/05/16 16:33:56;;;;;;;0.80;0.70;;;;;;;;;;5042992;28;20185;-60
2021/05/16 16:36:21;;;;;;;1.30;0.60;;;;;;;;;;5042168;28;20209;-61
2021/05/16 16:38:48;;;;;;;1.63;0.63;;;;;;;;;;5042371;28;20239;-60
2021/05/16 16:41:14;;;;;;;0.73;0.50;;;;;;;;;;5039834;28;20187;-60
2021/05/16 16:43:39;;;;;;;1.67;0.70;;;;;;;;;;5042946;28;20281;-59
2021/05/16 16:46:05;;;;;;;1.27;0.63;;;;;;;;;;5038656;28;20655;-59
2021/05/16 16:48:35;;;;;;;1.43;0.70;;;;;;;;;;5039423;28;20277;-62
2021/05/16 16:51:05;;;;;;;1.23;0.90;;;;;;;;;;5038855;28;20585;-59
2021/05/16 16:53:33;;;;;;;1.67;1.00;;;;;;;;;;5040737;28;20201;-61
2021/05/16 16:56:02;;;;;;;1.40;0.77;;;;;;;;;;5038971;28;20210;-61
2021/05/16 16:58:30;;;;;;;1.47;0.90;;;;;;;;;;5034246;28;20257;-60
2021/05/16 17:00:58;;;;;;;3.57;1.83;;;;;;;;;;5034193;28;20597;-59
2021/05/16 17:03:23;;;;;;;0.90;0.80;;;;;;;;;;5034534;28;20194;-60
2021/05/16 17:05:51;;;;;;;2.30;0.67;;;;;;;;;;5038139;28;20580;-58
2021/05/16 17:08:16;;;;;;;1.47;0.70;;;;;;;;;;5035019;28;20578;-62
2021/05/16 17:10:48;;;;;;;0.97;0.63;;;;;;;;;;5035114;28;20195;-61
2021/05/16 17:13:15;;;;;;;1.50;0.70;;;;;;;;;;5033064;28;20245;-62
2021/05/16 17:15:41;;;;;;;1.20;0.90;;;;;;;;;;5035682;28;20666;-63
2021/05/16 17:18:11;;;;;;;0.90;0.70;;;;;;;;;;5038689;28;20237;-60
2021/05/16 17:20:38;;;;;;;1.27;0.60;;;;;;;;;;5039701;28;20194;-63
2021/05/16 17:23:03;;;;;;;2.43;1.03;;;;;;;;;;5042669;28;20186;-65
2021/05/16 17:25:33;;;;;;;1.00;0.70;;;;;;;;;;5041705;28;20220;-66
2021/05/16 17:28:01;;;;;;;1.33;0.80;;;;;;;;;;5033353;28;20373;-62
2021/05/16 17:30:26;;;;;;;1.47;0.70;;;;;;;;;;5039739;28;20194;-61
2021/05/16 17:32:54;;;;;;;0.87;0.60;;;;;;;;;;5025670;28;20240;-59
2021/05/16 17:35:22;;;;;;;2.17;1.00;;;;;;;;;;5038513;28;20193;-60
2021/05/16 17:37:49;;;;;;;5.20;1.00;;;;;;;;;;5026367;28;20434;-60
2021/05/16 17:40:15;;;;;;;1.63;0.80;;;;;;;;;;5028156;28;20601;-58
2021/05/16 17:42:42;;;;;;;1.37;0.70;;;;;;;;;;5033933;28;20199;-58
2021/05/16 17:45:10;;;;;;;0.90;0.63;;;;;;;;;;5029073;28;20202;-65
2021/05/16 17:47:38;;;;;;;2.23;0.70;;;;;;;;;;5025875;28;20194;-58
2021/05/16 17:50:05;;;;;;;2.77;0.70;;;;;;;;;;5028312;28;20195;-60
2021/05/16 17:52:31;;;;;;;0.70;0.60;;;;;;;;;;5030182;28;20190;-57
2021/05/16 17:54:58;;;;;;;0.87;0.57;;;;;;;;;;5024378;28;20559;-59
2021/05/16 17:57:26;;;;;;;1.67;0.67;;;;;;;;;;5029060;28;20210;-59
2021/05/16 17:59:56;;;;;;;1.87;0.90;;;;;;;;;;5030538;28;20261;-60
2021/05/16 18:02:21;;;;;;;2.40;0.60;;;;;;;;;;5039353;28;20209;-59
2021/05/16 18:04:49;;;;;;;1.17;0.73;;;;;;;;;;5029639;28;20206;-59
2021/05/16 18:07:19;;;;;;;1.57;0.70;;;;;;;;;;5029505;28;20353;-59
2021/05/16 18:09:45;;;;;;;0.53;0.53;;;;;;;;;;5032868;28;20185;-60
2021/05/16 18:12:12;;;;;;;2.53;0.80;;;;;;;;;;5032356;28;20194;-58
2021/05/16 18:14:40;;;;;;;1.40;0.70;;;;;;;;;;5026044;28;20237;-60
2021/05/16 18:17:07;;;;;;;1.10;0.93;;;;;;;;;;5027799;28;20217;-61
2021/05/16 18:19:33;;;;;;;4.10;0.90;;;;;;;;;;5023974;28;20185;-59
2021/05/16 18:22:03;;;;;;;0.83;0.63;;;;;;;;;;5031502;28;20623;-59
2021/05/16 18:24:28;;;;;;;1.50;0.80;;;;;;;;;;5015196;28;20479;-57
2021/05/16 18:26:56;;;;;;;1.90;0.87;;;;;;;;;;5031074;28;20215;-59
2021/05/16 18:29:21;;;;;;;2.00;0.70;;;;;;;;;;5028546;28;20218;-61
2021/05/16 18:31:51;;;;;;;3.43;0.90;;;;;;;;;;5028333;28;20245;-63
2021/05/16 18:34:21;;;;;;;1.87;0.70;;;;;;;;;;5022754;28;20624;-62
2021/05/16 18:36:46;;;;;;;1.00;0.60;;;;;;;;;;5026076;28;20260;-59
2021/05/16 18:39:12;;;;;;;1.33;0.70;;;;;;;;;;5032189;28;20600;-60
2021/05/16 18:41:41;;;;;;;1.97;0.90;;;;;;;;;;5018265;28;20703;-63
2021/05/16 18:44:09;;;;;;;1.13;0.90;;;;;;;;;;5021708;28;20273;-59
2021/05/16 18:46:35;;;;;;;1.77;1.30;;;;;;;;;;5022790;28;21105;-56
2021/05/16 18:49:00;;;;;;;3.00;1.73;;;;;;;;;;5021041;28;20259;-57
2021/05/16 18:51:25;;;;;;;2.27;0.93;;;;;;;;;;5023559;28;20194;-56
2021/05/16 18:53:53;;;;;;;3.47;1.10;;;;;;;;;;5025022;28;20190;-61
2021/05/16 18:56:23;;;;;;;3.17;0.83;;;;;;;;;;5023234;28;20280;-59
2021/05/16 18:58:52;;;;;;;1.70;0.90;;;;;;;;;;5004740;28;20209;-59
2021/05/16 19:01:20;;;;;;;6.70;0.80;;;;;;;;;;5027910;28;20199;-61
2021/05/16 19:03:52;;;;;;;3.07;0.97;;;;;;;;;;5029851;28;20211;-58
2021/05/16 19:06:20;;;;;;;1.43;1.00;;;;;;;;;;5027840;28;20612;-57
2021/05/16 19:08:47;;;;;;;0.90;0.70;;;;;;;;;;5020415;28;20252;-58
2021/05/16 19:11:13;;;;;;;4.20;1.07;;;;;;;;;;5025765;28;20277;-58
2021/05/16 19:13:41;;;;;;;1.57;0.80;;;;;;;;;;5039609;28;20597;-59
2021/05/16 19:16:09;;;;;;;2.27;1.03;;;;;;;;;;5028679;28;20623;-59
2021/05/16 19:18:36;;;;;;;1.33;1.10;;;;;;;;;;5029657;28;20573;-59
2021/05/16 19:21:05;;;;;;;3.27;0.90;;;;;;;;;;5031808;28;20199;-59
2021/05/16 19:23:33;;;;;;;2.67;1.13;;;;;;;;;;5028828;28;20198;-59
2021/05/16 19:25:59;;;;;;;1.63;0.90;;;;;;;;;;5031230;28;20621;-58
2021/05/16 19:28:25;;;;;;;1.27;0.77;;;;;;;;;;5026900;28;20202;-60
2021/05/16 19:30:56;;;;;;;2.10;0.80;;;;;;;;;;5029579;28;20195;-60
2021/05/16 19:33:21;;;;;;;0.93;0.80;;;;;;;;;;5026369;28;20194;-58
2021/05/16 19:35:49;;;;;;;1.33;0.80;;;;;;;;;;5027844;28;20297;-57
2021/05/16 19:38:17;;;;;;;0.87;0.87;;;;;;;;;;5026224;28;20202;-58
2021/05/16 19:40:45;;;;;;;1.30;0.77;;;;;;;;;;5025973;28;20241;-57
2021/05/16 19:43:13;;;;;;;1.70;0.90;;;;;;;;;;5035299;28;20222;-63
2021/05/16 19:45:39;;;;;;;1.60;0.90;;;;;;;;;;5034872;28;20220;-58
2021/05/16 19:48:11;;;;;;;1.20;0.80;;;;;;;;;;5028809;28;20190;-57
2021/05/16 19:50:39;;;;;;;1.10;0.90;;;;;;;;;;5020145;28;20198;-59
2021/05/16 19:53:07;;;;;;;1.40;0.87;;;;;;;;;;5039147;28;20212;-58
2021/05/16 19:55:35;;;;;;;1.83;0.80;;;;;;;;;;5030882;28;20283;-60
2021/05/16 19:58:00;;;;;;;1.47;0.80;;;;;;;;;;5032844;28;20636;-60
2021/05/16 20:00:29;;;;;;;2.17;1.03;;;;;;;;;;5029293;28;20194;-58
2021/05/16 20:02:54;;;;;;;0.90;0.80;;;;;;;;;;5026700;28;20206;-58
2021/05/16 20:05:22;;;;;;;1.33;0.90;;;;;;;;;;5021511;28;20199;-58
2021/05/16 20:07:48;;;;;;;1.33;1.13;;;;;;;;;;5032937;28;20198;-59
2021/05/16 20:10:15;;;;;;;3.50;1.27;;;;;;;;;;5029803;28;20277;-57
2021/05/16 20:12:43;;;;;;;1.23;0.73;;;;;;;;;;5028358;28;20213;-57
2021/05/16 20:15:11;;;;;;;2.50;0.90;;;;;;;;;;5028228;28;21605;-58
2021/05/16 20:17:37;;;;;;;2.77;1.33;;;;;;;;;;5028593;28;20337;-60
2021/05/16 20:20:07;;;;;;;0.70;0.70;;;;;;;;;;5028432;28;20220;-58
2021/05/16 20:22:35;;;;;;;0.73;0.70;;;;;;;;;;5027642;28;20237;-58
2021/05/16 20:25:06;;;;;;;2.83;0.70;;;;;;;;;;5023942;28;20666;-58
2021/05/16 20:27:37;;;;;;;0.67;0.67;;;;;;;;;;5022909;28;20199;-60
2021/05/16 20:30:12;;;;;;;0.67;0.63;;;;;;;;;;5026349;28;20225;-58
2021/05/16 20:32:40;;;;;;;0.73;0.73;;;;;;;;;;5026913;28;20195;-62
2021/05/16 20:35:09;;;;;;;0.97;0.80;;;;;;;;;;5028384;28;20214;-61
2021/05/16 20:37:36;;;;;;;2.17;0.83;;;;;;;;;;5027734;28;20205;-59
2021/05/16 20:40:09;;;;;;;3.20;0.90;;;;;;;;;;5023347;28;20547;-62
2021/05/16 20:42:39;;;;;;;0.97;0.57;;;;;;;;;;5024117;28;20629;-57
2021/05/16 20:45:08;;;;;;;0.60;0.60;;;;;;;;;;5027687;28;20218;-57
2021/05/16 20:47:35;;;;;;;1.97;0.90;;;;;;;;;;5029291;28;20192;-58
2021/05/16 20:50:03;;;;;;;2.57;0.77;;;;;;;;;;5031430;28;20253;-58
2021/05/16 20:52:33;;;;;;;4.17;0.90;;;;;;;;;;5029145;28;20827;-57
2021/05/16 20:55:00;;;;;;;1.53;0.90;;;;;;;;;;5019872;28;20187;-58
2021/05/16 20:57:28;;;;;;;0.90;0.70;;;;;;;;;;5028089;28;20250;-59
2021/05/16 20:59:58;;;;;;;2.20;0.80;;;;;;;;;;5027792;28;20190;-58
2021/05/16 21:02:23;;;;;;;2.20;0.87;;;;;;;;;;5025287;28;20195;-57
2021/05/16 21:04:49;;;;;;;1.70;1.00;;;;;;;;;;5008415;28;20207;-58
2021/05/16 21:07:14;;;;;;;1.93;1.03;;;;;;;;;;5033957;28;20214;-57
2021/05/16 21:09:42;;;;;;;1.60;0.90;;;;;;;;;;5027741;28;20217;-58
2021/05/16 21:12:13;;;;;;;1.50;1.10;;;;;;;;;;5030030;28;20198;-57
2021/05/16 21:14:41;;;;;;;1.90;0.97;;;;;;;;;;5036071;28;20544;-56
2021/05/16 21:17:12;;;;;;;1.93;1.07;;;;;;;;;;5030849;28;20203;-55
2021/05/16 21:19:42;;;;;;;3.23;0.90;;;;;;;;;;5033275;28;20230;-55
2021/05/16 21:22:08;;;;;;;1.70;0.80;;;;;;;;;;5030525;28;20678;-56
2021/05/16 21:24:36;;;;;;;4.10;1.00;;;;;;;;;;5031778;28;20321;-55
2021/05/16 21:27:04;;;;;;;3.63;0.80;;;;;;;;;;5030091;28;20222;-59
2021/05/16 21:29:32;;;;;;;0.80;0.70;;;;;;;;;;5027804;28;20199;-57
2021/05/16 21:31:57;;;;;;;3.87;0.80;;;;;;;;;;5028378;28;20193;-54
2021/05/16 21:34:25;;;;;;;0.90;0.80;;;;;;;;;;5035923;28;20178;-54
2021/05/16 21:36:50;;;;;;;1.13;0.70;;;;;;;;;;5028726;28;20238;-56
2021/05/16 21:39:20;;;;;;;2.10;0.80;;;;;;;;;;5022684;28;20230;-57
2021/05/16 21:41:50;;;;;;;1.10;0.97;;;;;;;;;;5027037;28;20709;-57
2021/05/16 21:44:15;;;;;;;4.00;1.20;;;;;;;;;;5023513;28;20282;-57
2021/05/16 21:46:41;;;;;;;2.53;0.83;;;;;;;;;;5025466;28;20682;-57
2021/05/16 21:49:08;;;;;;;0.70;0.70;;;;;;;;;;5027955;28;20197;-55
2021/05/16 21:51:39;;;;;;;2.53;0.90;;;;;;;;;;5023051;28;20183;-58
2021/05/16 21:54:04;;;;;;;2.97;1.00;;;;;;;;;;5024826;28;20313;-56
2021/05/16 21:56:32;;;;;;;1.10;1.00;;;;;;;;;;5027709;28;20286;-59
2021/05/16 21:59:00;;;;;;;3.50;1.00;;;;;;;;;;5030305;28;20187;-58
2021/05/16 22:01:27;;;;;;;2.53;0.90;;;;;;;;;;5025912;28;20705;-57
2021/05/16 22:03:55;;;;;;;1.10;0.80;;;;;;;;;;5028110;28;20206;-56
2021/05/16 22:06:23;;;;;;;1.10;0.80;;;;;;;;;;5027538;28;20217;-57
2021/05/16 22:08:51;;;;;;;3.73;1.00;;;;;;;;;;5026616;28;20210;-56
2021/05/16 22:11:19;;;;;;;1.47;0.70;;;;;;;;;;5028157;28;20598;-56
2021/05/16 22:13:44;;;;;;;1.83;0.83;;;;;;;;;;5035631;28;20197;-59
2021/05/16 22:16:11;;;;;;;3.00;1.00;;;;;;;;;;5031528;28;20210;-56
2021/05/16 22:18:39;;;;;;;1.67;1.00;;;;;;;;;;5032825;28;20240;-58
2021/05/16 22:21:08;;;;;;;3.37;0.80;;;;;;;;;;5030137;28;20538;-56
2021/05/16 22:23:37;;;;;;;3.60;1.00;;;;;;;;;;5027257;28;20218;-55
2021/05/16 22:26:04;;;;;;;2.07;0.97;;;;;;;;;;5026855;28;20225;-58
2021/05/16 22:28:32;;;;;;;1.00;0.80;;;;;;;;;;5030617;28;20541;-57
2021/05/16 22:30:57;;;;;;;2.00;1.03;;;;;;;;;;5030428;28;20191;-57
2021/05/16 22:33:25;;;;;;;2.83;0.97;;;;;;;;;;5029063;28;20194;-59
2021/05/16 22:35:52;;;;;;;2.87;1.23;;;;;;;;;;5032737;28;20575;-59
2021/05/16 22:38:18;;;;;;;4.83;1.13;;;;;;;;;;5027881;28;20186;-57
2021/05/16 22:40:45;;;;;;;1.53;1.00;;;;;;;;;;5034338;28;20186;-58
2021/05/16 22:43:13;;;;;;;2.47;1.00;;;;;;;;;;5029943;28;20376;-55
2021/05/16 22:45:45;;;;;;;1.50;0.90;;;;;;;;;;5033826;28;20277;-57
2021/05/16 22:48:11;;;;;;;2.03;1.10;;;;;;;;;;5029758;28;20191;-58
2021/05/16 22:50:41;;;;;;;2.63;0.93;;;;;;;;;;5035048;28;20186;-57
2021/05/16 22:53:08;;;;;;;1.37;0.90;;;;;;;;;;5029759;28;20701;-59
2021/05/16 22:55:34;;;;;;;1.33;0.90;;;;;;;;;;5032438;28;20210;-58
2021/05/16 22:58:01;;;;;;;1.37;1.17;;;;;;;;;;5034968;28;20233;-57
2021/05/16 23:00:36;;;;;;;1.57;1.00;;;;;;;;;;5019740;28;20197;-57
2021/05/16 23:03:04;;;;;;;3.23;1.30;;;;;;;;;;5026855;28;20186;-59
2021/05/16 23:05:35;;;;;;;3.07;1.13;;;;;;;;;;5035280;28;20202;-59
2021/05/16 23:08:03;;;;;;;1.90;0.97;;;;;;;;;;5027156;28;20224;-58
2021/05/16 23:10:33;;;;;;;2.90;1.17;;;;;;;;;;5027287;28;20207;-59
2021/05/16 23:13:00;;;;;;;1.07;0.97;;;;;;;;;;5023400;28;20221;-59
2021/05/16 23:15:30;;;;;;;0.77;0.77;;;;;;;;;;5033203;28;20194;-56
2021/05/16 23:17:59;;;;;;;1.50;1.10;;;;;;;;;;5026426;28;20269;-56
2021/05/16 23:20:25;;;;;;;1.70;0.93;;;;;;;;;;5024465;28;20202;-58
2021/05/16 23:22:51;;;;;;;1.53;1.00;;;;;;;;;;5021327;28;20175;-59
2021/05/16 23:25:17;;;;;;;1.90;1.00;;;;;;;;;;5030209;28;20589;-57
2021/05/16 23:27:45;;;;;;;2.40;1.00;;;;;;;;;;5030126;28;20668;-58
2021/05/16 23:30:12;;;;;;;1.13;0.90;;;;;;;;;;5028771;28;20744;-57
2021/05/16 23:32:39;;;;;;;1.87;1.00;;;;;;;;;;5032978;28;20222;-57
2021/05/16 23:35:06;;;;;;;1.50;0.80;;;;;;;;;;5035812;28;20197;-59
2021/05/16 23:37:34;;;;;;;1.80;0.80;;;;;;;;;;5026769;28;20566;-55
2021/05/16 23:40:00;;;;;;;2.30;0.70;;;;;;;;;;5022792;28;20565;-59
2021/05/16 23:42:30;;;;;;;0.97;0.90;;;;;;;;;;5025529;28;20201;-58
2021/05/16 23:44:56;;;;;;;1.10;0.70;;;;;;;;;;5027381;28;20206;-56
2021/05/16 23:47:22;;;;;;;0.77;0.70;;;;;;;;;;5025610;28;20272;-58
2021/05/16 23:49:51;;;;;;;1.53;1.00;;;;;;;;;;5028545;28;20705;-58
2021/05/16 23:52:17;;;;;;;2.17;1.00;;;;;;;;;;5027685;28;20214;-55
2021/05/16 23:54:49;;;;;;;2.23;1.00;;;;;;;;;;5030077;28;20217;-58
2021/05/16 23:57:17;;;;;;;1.20;1.10;;;;;;;;;;5030662;28;20223;-57
2021/05/16 23:59:45;;;;;;;1.30;0.90;;;;;;;;;;5029981;28;20294;-56
